sensor_id;sensor_type;location;lat;lon;timestamp;pressure;altitude;pressure_sealevel;temperature
71807;BMP280;59655;42.590;23.364;2023-10-09T00:01:58;91987.16;;;16.17
71807;BMP280;59655;42.590;23.364;2023-10-09T00:04:24;92006.47;;;16.15
71807;BMP280;59655;42.590;23.364;2023-10-09T00:06:49;92008.97;;;16.03
71807;BMP280;59655;42.590;23.364;2023-10-09T00:09:14;92000.50;;;15.97
71807;BMP280;59655;42.590;23.364;2023-10-09T00:11:43;91989.91;;;15.90
71807;BMP280;59655;42.590;23.364;2023-10-09T00:14:10;91974.53;;;15.90
71807;BMP280;59655;42.590;23.364;2023-10-09T00:16:37;91984.41;;;15.87
71807;BMP280;59655;42.590;23.364;2023-10-09T00:19:12;91986.38;;;15.87
71807;BMP280;59655;42.590;23.364;2023-10-09T00:21:51;91977.97;;;16.00
71807;BMP280;59655;42.590;23.364;2023-10-09T00:24:20;91993.44;;;15.92
71807;BMP280;59655;42.590;23.364;2023-10-09T00:26:52;91983.84;;;15.89
71807;BMP280;59655;42.590;23.364;2023-10-09T00:29:21;91979.88;;;15.80
71807;BMP280;59655;42.590;23.364;2023-10-09T00:31:53;91980.28;;;15.86
71807;BMP280;59655;42.590;23.364;2023-10-09T00:34:39;91986.63;;;15.81
71807;BMP280;59655;42.590;23.364;2023-10-09T00:37:10;91986.34;;;15.77
71807;BMP280;59655;42.590;23.364;2023-10-09T00:39:41;91976.78;;;15.84
71807;BMP280;59655;42.590;23.364;2023-10-09T00:42:09;91978.97;;;15.68
71807;BMP280;59655;42.590;23.364;2023-10-09T00:44:38;91986.59;;;15.72
71807;BMP280;59655;42.590;23.364;2023-10-09T00:47:14;91980.72;;;15.56
71807;BMP280;59655;42.590;23.364;2023-10-09T00:49:53;91972.16;;;15.57
71807;BMP280;59655;42.590;23.364;2023-10-09T00:52:40;91973.47;;;15.66
71807;BMP280;59655;42.590;23.364;2023-10-09T00:55:20;91969.44;;;15.75
71807;BMP280;59655;42.590;23.364;2023-10-09T00:58:05;91981.16;;;15.89
71807;BMP280;59655;42.590;23.364;2023-10-09T01:00:37;91978.75;;;15.83
71807;BMP280;59655;42.590;23.364;2023-10-09T01:03:09;91987.50;;;15.84
71807;BMP280;59655;42.590;23.364;2023-10-09T01:05:48;91992.69;;;15.82
71807;BMP280;59655;42.590;23.364;2023-10-09T01:08:18;91994.09;;;15.83
71807;BMP280;59655;42.590;23.364;2023-10-09T01:10:51;92009.13;;;15.69
71807;BMP280;59655;42.590;23.364;2023-10-09T01:13:25;92001.91;;;15.71
71807;BMP280;59655;42.590;23.364;2023-10-09T01:16:14;91996.47;;;15.79
71807;BMP280;59655;42.590;23.364;2023-10-09T01:21:11;92016.44;;;15.41
71807;BMP280;59655;42.590;23.364;2023-10-09T01:23:44;92029.19;;;15.33
71807;BMP280;59655;42.590;23.364;2023-10-09T01:26:36;92026.06;;;15.36
71807;BMP280;59655;42.590;23.364;2023-10-09T01:29:09;92014.84;;;15.38
71807;BMP280;59655;42.590;23.364;2023-10-09T01:31:51;92015.50;;;15.11
71807;BMP280;59655;42.590;23.364;2023-10-09T01:34:33;92006.91;;;15.13
71807;BMP280;59655;42.590;23.364;2023-10-09T01:37:16;92020.66;;;15.44
71807;BMP280;59655;42.590;23.364;2023-10-09T01:39:49;92042.19;;;15.46
71807;BMP280;59655;42.590;23.364;2023-10-09T01:42:16;92024.06;;;15.45
71807;BMP280;59655;42.590;23.364;2023-10-09T01:45:01;92024.06;;;15.45
71807;BMP280;59655;42.590;23.364;2023-10-09T01:47:41;92017.69;;;15.40
71807;BMP280;59655;42.590;23.364;2023-10-09T01:50:16;92038.16;;;15.28
71807;BMP280;59655;42.590;23.364;2023-10-09T01:52:50;92037.59;;;15.29
71807;BMP280;59655;42.590;23.364;2023-10-09T01:55:16;92022.13;;;14.93
71807;BMP280;59655;42.590;23.364;2023-10-09T01:57:59;92033.75;;;14.88
71807;BMP280;59655;42.590;23.364;2023-10-09T02:00:31;92022.66;;;14.91
71807;BMP280;59655;42.590;23.364;2023-10-09T02:03:00;92039.63;;;14.69
71807;BMP280;59655;42.590;23.364;2023-10-09T02:05:30;92044.97;;;14.86
71807;BMP280;59655;42.590;23.364;2023-10-09T02:07:58;92042.38;;;14.79
71807;BMP280;59655;42.590;23.364;2023-10-09T02:10:24;92058.53;;;14.63
71807;BMP280;59655;42.590;23.364;2023-10-09T02:12:50;92066.28;;;14.77
71807;BMP280;59655;42.590;23.364;2023-10-09T02:15:29;92065.94;;;14.72
71807;BMP280;59655;42.590;23.364;2023-10-09T02:18:28;92062.84;;;14.84
71807;BMP280;59655;42.590;23.364;2023-10-09T02:23:29;92064.81;;;14.83
71807;BMP280;59655;42.590;23.364;2023-10-09T02:26:17;92065.88;;;14.80
71807;BMP280;59655;42.590;23.364;2023-10-09T02:29:12;92078.28;;;14.43
71807;BMP280;59655;42.590;23.364;2023-10-09T02:31:37;92082.41;;;14.11
71807;BMP280;59655;42.590;23.364;2023-10-09T02:34:06;92081.09;;;14.27
71807;BMP280;59655;42.590;23.364;2023-10-09T02:36:41;92082.69;;;14.48
71807;BMP280;59655;42.590;23.364;2023-10-09T02:39:07;92082.97;;;14.10
71807;BMP280;59655;42.590;23.364;2023-10-09T02:41:46;92089.13;;;13.87
71807;BMP280;59655;42.590;23.364;2023-10-09T02:44:14;92092.44;;;14.03
71807;BMP280;59655;42.590;23.364;2023-10-09T02:46:41;92088.78;;;13.91
71807;BMP280;59655;42.590;23.364;2023-10-09T02:49:06;92090.84;;;13.92
71807;BMP280;59655;42.590;23.364;2023-10-09T02:51:34;92087.88;;;13.88
71807;BMP280;59655;42.590;23.364;2023-10-09T02:54:06;92086.91;;;14.01
71807;BMP280;59655;42.590;23.364;2023-10-09T02:56:34;92073.75;;;14.03
71807;BMP280;59655;42.590;23.364;2023-10-09T02:59:07;92084.06;;;13.99
71807;BMP280;59655;42.590;23.364;2023-10-09T03:01:39;92077.13;;;14.03
71807;BMP280;59655;42.590;23.364;2023-10-09T03:04:05;92096.06;;;13.82
71807;BMP280;59655;42.590;23.364;2023-10-09T03:06:39;92106.38;;;13.86
71807;BMP280;59655;42.590;23.364;2023-10-09T03:09:25;92114.59;;;14.13
71807;BMP280;59655;42.590;23.364;2023-10-09T03:11:56;92119.59;;;14.17
71807;BMP280;59655;42.590;23.364;2023-10-09T03:14:28;92112.13;;;14.07
71807;BMP280;59655;42.590;23.364;2023-10-09T03:16:57;92125.13;;;13.63
71807;BMP280;59655;42.590;23.364;2023-10-09T03:19:25;92116.19;;;13.83
71807;BMP280;59655;42.590;23.364;2023-10-09T03:21:51;92125.78;;;13.87
71807;BMP280;59655;42.590;23.364;2023-10-09T03:24:17;92115.44;;;13.91
71807;BMP280;59655;42.590;23.364;2023-10-09T03:26:45;92119.38;;;13.82
71807;BMP280;59655;42.590;23.364;2023-10-09T03:29:11;92122.75;;;13.82
71807;BMP280;59655;42.590;23.364;2023-10-09T03:31:37;92130.69;;;13.50
71807;BMP280;59655;42.590;23.364;2023-10-09T03:34:03;92144.00;;;13.57
71807;BMP280;59655;42.590;23.364;2023-10-09T03:36:29;92139.22;;;13.56
71807;BMP280;59655;42.590;23.364;2023-10-09T03:38:57;92133.00;;;13.46
71807;BMP280;59655;42.590;23.364;2023-10-09T03:41:26;92126.28;;;13.29
71807;BMP280;59655;42.590;23.364;2023-10-09T03:43:52;92129.53;;;13.20
71807;BMP280;59655;42.590;23.364;2023-10-09T03:46:20;92136.06;;;13.27
71807;BMP280;59655;42.590;23.364;2023-10-09T03:48:50;92134.16;;;13.04
71807;BMP280;59655;42.590;23.364;2023-10-09T03:51:17;92140.19;;;12.97
71807;BMP280;59655;42.590;23.364;2023-10-09T03:53:49;92135.56;;;12.82
71807;BMP280;59655;42.590;23.364;2023-10-09T03:56:15;92145.69;;;12.91
71807;BMP280;59655;42.590;23.364;2023-10-09T03:58:51;92135.22;;;12.86
71807;BMP280;59655;42.590;23.364;2023-10-09T04:01:21;92152.63;;;12.87
71807;BMP280;59655;42.590;23.364;2023-10-09T04:04:03;92142.16;;;12.66
71807;BMP280;59655;42.590;23.364;2023-10-09T04:06:31;92132.03;;;12.72
71807;BMP280;59655;42.590;23.364;2023-10-09T04:09:02;92140.88;;;12.82
71807;BMP280;59655;42.590;23.364;2023-10-09T04:11:50;92134.28;;;12.30
71807;BMP280;59655;42.590;23.364;2023-10-09T04:14:41;92125.97;;;12.64
71807;BMP280;59655;42.590;23.364;2023-10-09T04:17:33;92136.63;;;12.64
71807;BMP280;59655;42.590;23.364;2023-10-09T04:19:59;92138.56;;;12.40
71807;BMP280;59655;42.590;23.364;2023-10-09T04:22:43;92133.94;;;12.48
71807;BMP280;59655;42.590;23.364;2023-10-09T04:25:27;92145.47;;;12.43
71807;BMP280;59655;42.590;23.364;2023-10-09T04:28:07;92154.06;;;12.05
71807;BMP280;59655;42.590;23.364;2023-10-09T04:30:51;92133.16;;;12.17
71807;BMP280;59655;42.590;23.364;2023-10-09T04:33:20;92138.94;;;12.52
71807;BMP280;59655;42.590;23.364;2023-10-09T04:36:05;92143.72;;;12.69
71807;BMP280;59655;42.590;23.364;2023-10-09T04:38:52;92148.69;;;12.80
71807;BMP280;59655;42.590;23.364;2023-10-09T04:41:30;92149.22;;;12.56
71807;BMP280;59655;42.590;23.364;2023-10-09T04:44:19;92146.94;;;12.67
71807;BMP280;59655;42.590;23.364;2023-10-09T04:46:49;92150.28;;;12.68
71807;BMP280;59655;42.590;23.364;2023-10-09T04:49:34;92152.59;;;12.64
71807;BMP280;59655;42.590;23.364;2023-10-09T04:52:20;92151.50;;;12.67
71807;BMP280;59655;42.590;23.364;2023-10-09T04:54:54;92139.31;;;12.87
71807;BMP280;59655;42.590;23.364;2023-10-09T04:57:32;92154.59;;;12.79
71807;BMP280;59655;42.590;23.364;2023-10-09T05:00:08;92154.22;;;12.90
71807;BMP280;59655;42.590;23.364;2023-10-09T05:03:00;92152.25;;;12.83
71807;BMP280;59655;42.590;23.364;2023-10-09T05:05:49;92158.41;;;12.39
71807;BMP280;59655;42.590;23.364;2023-10-09T05:08:24;92144.75;;;12.35
71807;BMP280;59655;42.590;23.364;2023-10-09T05:10:59;92157.91;;;12.48
71807;BMP280;59655;42.590;23.364;2023-10-09T05:13:25;92157.47;;;12.14
71807;BMP280;59655;42.590;23.364;2023-10-09T05:18:40;92157.84;;;11.81
71807;BMP280;59655;42.590;23.364;2023-10-09T05:21:07;92154.81;;;11.77
71807;BMP280;59655;42.590;23.364;2023-10-09T05:23:39;92166.88;;;11.78
71807;BMP280;59655;42.590;23.364;2023-10-09T05:26:14;92165.66;;;11.79
71807;BMP280;59655;42.590;23.364;2023-10-09T05:29:03;92180.28;;;12.01
71807;BMP280;59655;42.590;23.364;2023-10-09T05:31:50;92162.00;;;11.98
71807;BMP280;59655;42.590;23.364;2023-10-09T05:34:30;92173.13;;;11.89
71807;BMP280;59655;42.590;23.364;2023-10-09T05:37:05;92191.31;;;11.69
71807;BMP280;59655;42.590;23.364;2023-10-09T05:39:56;92173.00;;;11.94
71807;BMP280;59655;42.590;23.364;2023-10-09T05:42:24;92189.41;;;11.77
71807;BMP280;59655;42.590;23.364;2023-10-09T05:44:55;92196.38;;;11.96
71807;BMP280;59655;42.590;23.364;2023-10-09T05:47:41;92197.94;;;11.83
71807;BMP280;59655;42.590;23.364;2023-10-09T05:50:27;92203.75;;;11.82
71807;BMP280;59655;42.590;23.364;2023-10-09T05:52:54;92194.44;;;11.96
71807;BMP280;59655;42.590;23.364;2023-10-09T05:55:23;92210.44;;;12.04
71807;BMP280;59655;42.590;23.364;2023-10-09T05:57:52;92200.97;;;11.95
71807;BMP280;59655;42.590;23.364;2023-10-09T06:00:17;92211.81;;;11.97
71807;BMP280;59655;42.590;23.364;2023-10-09T06:03:02;92224.31;;;12.18
71807;BMP280;59655;42.590;23.364;2023-10-09T06:08:23;92234.78;;;12.08
71807;BMP280;59655;42.590;23.364;2023-10-09T06:11:04;92251.31;;;11.86
71807;BMP280;59655;42.590;23.364;2023-10-09T06:13:57;92248.78;;;12.09
71807;BMP280;59655;42.590;23.364;2023-10-09T06:16:35;92252.19;;;11.88
71807;BMP280;59655;42.590;23.364;2023-10-09T06:19:13;92239.41;;;11.79
71807;BMP280;59655;42.590;23.364;2023-10-09T06:21:46;92253.63;;;11.89
71807;BMP280;59655;42.590;23.364;2023-10-09T06:24:22;92263.56;;;11.89
71807;BMP280;59655;42.590;23.364;2023-10-09T06:27:11;92252.28;;;12.03
71807;BMP280;59655;42.590;23.364;2023-10-09T06:29:41;92260.44;;;11.98
71807;BMP280;59655;42.590;23.364;2023-10-09T06:32:11;92252.84;;;12.02
71807;BMP280;59655;42.590;23.364;2023-10-09T06:34:53;92255.31;;;12.00
71807;BMP280;59655;42.590;23.364;2023-10-09T06:37:40;92242.19;;;12.02
71807;BMP280;59655;42.590;23.364;2023-10-09T06:40:25;92241.91;;;12.21
71807;BMP280;59655;42.590;23.364;2023-10-09T06:43:09;92246.66;;;12.15
71807;BMP280;59655;42.590;23.364;2023-10-09T06:45:40;92254.34;;;12.26
71807;BMP280;59655;42.590;23.364;2023-10-09T06:48:21;92244.44;;;12.34
71807;BMP280;59655;42.590;23.364;2023-10-09T06:51:12;92232.66;;;12.14
71807;BMP280;59655;42.590;23.364;2023-10-09T06:53:50;92231.88;;;12.42
71807;BMP280;59655;42.590;23.364;2023-10-09T06:56:29;92235.59;;;12.39
71807;BMP280;59655;42.590;23.364;2023-10-09T06:58:59;92254.53;;;12.28
71807;BMP280;59655;42.590;23.364;2023-10-09T07:01:29;92241.94;;;12.28
71807;BMP280;59655;42.590;23.364;2023-10-09T07:04:04;92244.84;;;12.46
71807;BMP280;59655;42.590;23.364;2023-10-09T07:06:50;92242.00;;;12.44
71807;BMP280;59655;42.590;23.364;2023-10-09T07:09:22;92262.59;;;12.43
71807;BMP280;59655;42.590;23.364;2023-10-09T07:17:06;92259.75;;;12.49
71807;BMP280;59655;42.590;23.364;2023-10-09T07:19:47;92264.75;;;12.60
71807;BMP280;59655;42.590;23.364;2023-10-09T07:22:13;92261.97;;;12.66
71807;BMP280;59655;42.590;23.364;2023-10-09T07:24:53;92267.28;;;12.66
71807;BMP280;59655;42.590;23.364;2023-10-09T07:27:22;92272.75;;;12.60
71807;BMP280;59655;42.590;23.364;2023-10-09T07:30:07;92282.00;;;12.67
71807;BMP280;59655;42.590;23.364;2023-10-09T07:32:53;92269.63;;;12.77
71807;BMP280;59655;42.590;23.364;2023-10-09T07:35:20;92272.81;;;12.83
71807;BMP280;59655;42.590;23.364;2023-10-09T07:38:24;92269.28;;;12.73
71807;BMP280;59655;42.590;23.364;2023-10-09T07:40:54;92277.81;;;12.79
71807;BMP280;59655;42.590;23.364;2023-10-09T07:46:05;92277.09;;;12.86
71807;BMP280;59655;42.590;23.364;2023-10-09T07:48:31;92263.78;;;12.86
71807;BMP280;59655;42.590;23.364;2023-10-09T07:51:20;92274.63;;;12.88
71807;BMP280;59655;42.590;23.364;2023-10-09T07:53:57;92266.97;;;12.85
71807;BMP280;59655;42.590;23.364;2023-10-09T07:56:26;92274.06;;;12.90
71807;BMP280;59655;42.590;23.364;2023-10-09T07:58:57;92276.22;;;12.99
71807;BMP280;59655;42.590;23.364;2023-10-09T08:01:26;92272.00;;;13.11
71807;BMP280;59655;42.590;23.364;2023-10-09T08:04:03;92279.28;;;13.11
71807;BMP280;59655;42.590;23.364;2023-10-09T08:06:45;92272.88;;;12.99
71807;BMP280;59655;42.590;23.364;2023-10-09T08:09:13;92273.19;;;12.95
71807;BMP280;59655;42.590;23.364;2023-10-09T08:11:39;92282.44;;;13.09
71807;BMP280;59655;42.590;23.364;2023-10-09T08:14:05;92283.00;;;13.08
71807;BMP280;59655;42.590;23.364;2023-10-09T08:16:50;92291.38;;;13.12
71807;BMP280;59655;42.590;23.364;2023-10-09T08:19:31;92277.88;;;13.25
71807;BMP280;59655;42.590;23.364;2023-10-09T08:22:01;92287.47;;;13.21
71807;BMP280;59655;42.590;23.364;2023-10-09T08:24:44;92280.88;;;13.29
71807;BMP280;59655;42.590;23.364;2023-10-09T08:30:05;92262.75;;;13.28
71807;BMP280;59655;42.590;23.364;2023-10-09T08:32:47;92259.06;;;13.38
71807;BMP280;59655;42.590;23.364;2023-10-09T08:35:34;92278.94;;;13.45
71807;BMP280;59655;42.590;23.364;2023-10-09T08:38:01;92263.47;;;13.36
71807;BMP280;59655;42.590;23.364;2023-10-09T08:40:42;92254.94;;;13.45
71807;BMP280;59655;42.590;23.364;2023-10-09T08:43:18;92254.25;;;13.52
71807;BMP280;59655;42.590;23.364;2023-10-09T08:48:13;92236.63;;;13.49
71807;BMP280;59655;42.590;23.364;2023-10-09T08:50:48;92242.13;;;13.59
71807;BMP280;59655;42.590;23.364;2023-10-09T08:53:20;92256.38;;;13.54
71807;BMP280;59655;42.590;23.364;2023-10-09T08:55:46;92235.22;;;13.56
71807;BMP280;59655;42.590;23.364;2023-10-09T08:58:14;92248.00;;;13.65
71807;BMP280;59655;42.590;23.364;2023-10-09T09:00:57;92238.91;;;13.68
71807;BMP280;59655;42.590;23.364;2023-10-09T09:03:26;92241.75;;;13.70
71807;BMP280;59655;42.590;23.364;2023-10-09T09:06:00;92238.41;;;13.70
71807;BMP280;59655;42.590;23.364;2023-10-09T09:08:32;92235.00;;;13.77
71807;BMP280;59655;42.590;23.364;2023-10-09T09:11:05;92233.56;;;13.76
71807;BMP280;59655;42.590;23.364;2023-10-09T09:16:17;92252.44;;;13.70
71807;BMP280;59655;42.590;23.364;2023-10-09T09:21:26;92248.88;;;13.83
71807;BMP280;59655;42.590;23.364;2023-10-09T09:24:00;92254.91;;;13.91
71807;BMP280;59655;42.590;23.364;2023-10-09T09:26:41;92251.16;;;13.87
71807;BMP280;59655;42.590;23.364;2023-10-09T09:29:24;92241.50;;;13.99
71807;BMP280;59655;42.590;23.364;2023-10-09T09:31:54;92243.16;;;13.94
71807;BMP280;59655;42.590;23.364;2023-10-09T09:34:20;92238.69;;;13.97
71807;BMP280;59655;42.590;23.364;2023-10-09T09:36:55;92240.47;;;14.02
71807;BMP280;59655;42.590;23.364;2023-10-09T09:39:24;92244.44;;;13.78
71807;BMP280;59655;42.590;23.364;2023-10-09T09:41:57;92233.91;;;13.88
71807;BMP280;59655;42.590;23.364;2023-10-09T09:44:23;92236.03;;;13.97
71807;BMP280;59655;42.590;23.364;2023-10-09T09:46:59;92233.88;;;13.95
71807;BMP280;59655;42.590;23.364;2023-10-09T09:49:27;92232.97;;;14.00
71807;BMP280;59655;42.590;23.364;2023-10-09T09:52:03;92243.81;;;14.10
71807;BMP280;59655;42.590;23.364;2023-10-09T09:54:36;92240.72;;;14.29
71807;BMP280;59655;42.590;23.364;2023-10-09T09:57:03;92232.34;;;14.25
71807;BMP280;59655;42.590;23.364;2023-10-09T09:59:37;92234.81;;;14.31
71807;BMP280;59655;42.590;23.364;2023-10-09T10:02:05;92228.75;;;14.38
71807;BMP280;59655;42.590;23.364;2023-10-09T10:04:32;92227.50;;;14.39
71807;BMP280;59655;42.590;23.364;2023-10-09T10:07:04;92214.03;;;14.29
71807;BMP280;59655;42.590;23.364;2023-10-09T10:09:41;92209.31;;;14.45
71807;BMP280;59655;42.590;23.364;2023-10-09T10:12:08;92216.22;;;14.48
71807;BMP280;59655;42.590;23.364;2023-10-09T10:17:19;92206.91;;;14.64
71807;BMP280;59655;42.590;23.364;2023-10-09T10:20:01;92189.47;;;14.56
71807;BMP280;59655;42.590;23.364;2023-10-09T10:22:46;92194.06;;;14.63
71807;BMP280;59655;42.590;23.364;2023-10-09T10:25:34;92181.63;;;14.58
71807;BMP280;59655;42.590;23.364;2023-10-09T10:28:19;92176.94;;;14.66
71807;BMP280;59655;42.590;23.364;2023-10-09T10:31:06;92185.09;;;14.76
71807;BMP280;59655;42.590;23.364;2023-10-09T10:36:24;92170.78;;;14.81
71807;BMP280;59655;42.590;23.364;2023-10-09T10:39:07;92170.56;;;14.86
71807;BMP280;59655;42.590;23.364;2023-10-09T10:41:37;92159.88;;;14.86
71807;BMP280;59655;42.590;23.364;2023-10-09T10:44:27;92162.50;;;14.94
71807;BMP280;59655;42.590;23.364;2023-10-09T10:47:06;92147.72;;;14.93
71807;BMP280;59655;42.590;23.364;2023-10-09T10:49:53;92145.84;;;15.03
71807;BMP280;59655;42.590;23.364;2023-10-09T10:52:24;92146.13;;;14.90
71807;BMP280;59655;42.590;23.364;2023-10-09T10:55:14;92137.22;;;14.95
71807;BMP280;59655;42.590;23.364;2023-10-09T10:57:44;92121.44;;;15.07
71807;BMP280;59655;42.590;23.364;2023-10-09T11:00:19;92136.38;;;15.10
71807;BMP280;59655;42.590;23.364;2023-10-09T11:03:03;92123.31;;;15.14
71807;BMP280;59655;42.590;23.364;2023-10-09T11:05:54;92133.53;;;15.25
71807;BMP280;59655;42.590;23.364;2023-10-09T11:08:25;92116.63;;;15.23
71807;BMP280;59655;42.590;23.364;2023-10-09T11:11:10;92118.91;;;15.26
71807;BMP280;59655;42.590;23.364;2023-10-09T11:13:41;92122.13;;;15.42
71807;BMP280;59655;42.590;23.364;2023-10-09T11:16:23;92115.63;;;15.35
71807;BMP280;59655;42.590;23.364;2023-10-09T11:19:11;92119.84;;;15.38
71807;BMP280;59655;42.590;23.364;2023-10-09T11:22:01;92111.41;;;15.42
71807;BMP280;59655;42.590;23.364;2023-10-09T11:24:34;92101.63;;;15.45
71807;BMP280;59655;42.590;23.364;2023-10-09T11:27:01;92088.31;;;15.54
71807;BMP280;59655;42.590;23.364;2023-10-09T11:29:31;92075.38;;;15.60
71807;BMP280;59655;42.590;23.364;2023-10-09T11:32:19;92071.13;;;15.57
71807;BMP280;59655;42.590;23.364;2023-10-09T11:34:49;92061.31;;;15.60
71807;BMP280;59655;42.590;23.364;2023-10-09T11:37:19;92072.75;;;15.70
71807;BMP280;59655;42.590;23.364;2023-10-09T11:40:05;92075.44;;;15.70
71807;BMP280;59655;42.590;23.364;2023-10-09T11:42:49;92079.06;;;15.65
71807;BMP280;59655;42.590;23.364;2023-10-09T11:45:24;92079.69;;;15.73
71807;BMP280;59655;42.590;23.364;2023-10-09T11:47:51;92081.56;;;15.80
71807;BMP280;59655;42.590;23.364;2023-10-09T11:53:08;92074.41;;;15.83
71807;BMP280;59655;42.590;23.364;2023-10-09T11:55:35;92066.88;;;15.99
71807;BMP280;59655;42.590;23.364;2023-10-09T11:58:02;92067.97;;;15.96
71807;BMP280;59655;42.590;23.364;2023-10-09T12:00:30;92064.50;;;16.03
71807;BMP280;59655;42.590;23.364;2023-10-09T12:03:06;92053.53;;;16.08
71807;BMP280;59655;42.590;23.364;2023-10-09T12:05:32;92050.28;;;16.10
71807;BMP280;59655;42.590;23.364;2023-10-09T12:07:58;92044.19;;;16.09
71807;BMP280;59655;42.590;23.364;2023-10-09T12:10:26;92031.41;;;16.08
71807;BMP280;59655;42.590;23.364;2023-10-09T12:12:52;92032.84;;;16.19
71807;BMP280;59655;42.590;23.364;2023-10-09T12:15:18;92024.56;;;16.24
71807;BMP280;59655;42.590;23.364;2023-10-09T12:17:45;92023.88;;;16.33
71807;BMP280;59655;42.590;23.364;2023-10-09T12:20:13;92016.53;;;16.34
71807;BMP280;59655;42.590;23.364;2023-10-09T12:22:56;92016.28;;;16.49
71807;BMP280;59655;42.590;23.364;2023-10-09T12:25:23;92025.47;;;16.56
71807;BMP280;59655;42.590;23.364;2023-10-09T12:27:48;92020.56;;;16.62
71807;BMP280;59655;42.590;23.364;2023-10-09T12:30:14;92016.88;;;16.67
71807;BMP280;59655;42.590;23.364;2023-10-09T12:32:39;92023.94;;;16.72
71807;BMP280;59655;42.590;23.364;2023-10-09T12:35:06;92019.13;;;16.81
71807;BMP280;59655;42.590;23.364;2023-10-09T12:37:43;92013.78;;;16.90
71807;BMP280;59655;42.590;23.364;2023-10-09T12:40:08;92012.94;;;16.97
71807;BMP280;59655;42.590;23.364;2023-10-09T12:42:36;92013.19;;;17.11
71807;BMP280;59655;42.590;23.364;2023-10-09T12:45:02;92010.94;;;17.27
71807;BMP280;59655;42.590;23.364;2023-10-09T12:47:34;92011.47;;;17.55
71807;BMP280;59655;42.590;23.364;2023-10-09T12:50:04;92009.66;;;17.88
71807;BMP280;59655;42.590;23.364;2023-10-09T12:52:35;92007.94;;;18.46
71807;BMP280;59655;42.590;23.364;2023-10-09T12:55:03;92008.34;;;19.06
71807;BMP280;59655;42.590;23.364;2023-10-09T12:57:38;91999.81;;;19.78
71807;BMP280;59655;42.590;23.364;2023-10-09T13:00:07;92001.22;;;20.64
71807;BMP280;59655;42.590;23.364;2023-10-09T13:02:36;91990.81;;;22.04
71807;BMP280;59655;42.590;23.364;2023-10-09T13:05:02;91984.69;;;23.51
71807;BMP280;59655;42.590;23.364;2023-10-09T13:07:30;91983.25;;;24.67
71807;BMP280;59655;42.590;23.364;2023-10-09T13:09:55;91987.88;;;25.18
71807;BMP280;59655;42.590;23.364;2023-10-09T13:12:38;91980.56;;;25.62
71807;BMP280;59655;42.590;23.364;2023-10-09T13:15:08;91980.78;;;25.68
71807;BMP280;59655;42.590;23.364;2023-10-09T13:17:38;91976.44;;;25.41
71807;BMP280;59655;42.590;23.364;2023-10-09T13:20:04;91971.91;;;25.28
71807;BMP280;59655;42.590;23.364;2023-10-09T13:22:49;91955.56;;;25.08
71807;BMP280;59655;42.590;23.364;2023-10-09T13:25:17;91965.78;;;24.90
71807;BMP280;59655;42.590;23.364;2023-10-09T13:27:50;91958.81;;;24.67
71807;BMP280;59655;42.590;23.364;2023-10-09T13:30:18;91951.66;;;24.04
71807;BMP280;59655;42.590;23.364;2023-10-09T13:32:50;91955.00;;;23.87
71807;BMP280;59655;42.590;23.364;2023-10-09T13:35:17;91950.88;;;23.20
71807;BMP280;59655;42.590;23.364;2023-10-09T13:37:44;91948.59;;;22.99
71807;BMP280;59655;42.590;23.364;2023-10-09T13:40:15;91952.13;;;22.72
71807;BMP280;59655;42.590;23.364;2023-10-09T13:42:54;91947.78;;;22.51
71807;BMP280;59655;42.590;23.364;2023-10-09T13:45:27;91952.47;;;22.21
71807;BMP280;59655;42.590;23.364;2023-10-09T13:47:56;91943.69;;;21.93
71807;BMP280;59655;42.590;23.364;2023-10-09T13:50:25;91940.88;;;21.63
71807;BMP280;59655;42.590;23.364;2023-10-09T13:52:57;91939.72;;;21.66
71807;BMP280;59655;42.590;23.364;2023-10-09T13:55:22;91942.59;;;21.57
71807;BMP280;59655;42.590;23.364;2023-10-09T13:57:49;91937.50;;;21.49
71807;BMP280;59655;42.590;23.364;2023-10-09T14:00:15;91924.50;;;21.45
71807;BMP280;59655;42.590;23.364;2023-10-09T14:02:58;91923.03;;;21.31
71807;BMP280;59655;42.590;23.364;2023-10-09T14:05:27;91916.34;;;21.18
71807;BMP280;59655;42.590;23.364;2023-10-09T14:07:53;91919.44;;;21.12
71807;BMP280;59655;42.590;23.364;2023-10-09T14:10:25;91917.13;;;21.07
71807;BMP280;59655;42.590;23.364;2023-10-09T14:12:55;91918.69;;;20.98
71807;BMP280;59655;42.590;23.364;2023-10-09T14:15:22;91920.66;;;20.84
71807;BMP280;59655;42.590;23.364;2023-10-09T14:17:48;91919.47;;;20.87
71807;BMP280;59655;42.590;23.364;2023-10-09T14:20:21;91919.25;;;20.83
71807;BMP280;59655;42.590;23.364;2023-10-09T14:23:00;91920.47;;;20.80
71807;BMP280;59655;42.590;23.364;2023-10-09T14:25:35;91918.72;;;20.72
71807;BMP280;59655;42.590;23.364;2023-10-09T14:28:04;91921.53;;;20.49
71807;BMP280;59655;42.590;23.364;2023-10-09T14:30:36;91915.00;;;20.28
71807;BMP280;59655;42.590;23.364;2023-10-09T14:33:13;91921.09;;;20.29
71807;BMP280;59655;42.590;23.364;2023-10-09T14:35:44;91925.78;;;20.28
71807;BMP280;59655;42.590;23.364;2023-10-09T14:38:10;91920.09;;;20.22
71807;BMP280;59655;42.590;23.364;2023-10-09T14:40:42;91918.22;;;20.13
71807;BMP280;59655;42.590;23.364;2023-10-09T14:43:09;91915.13;;;19.93
71807;BMP280;59655;42.590;23.364;2023-10-09T14:45:45;91925.31;;;19.95
71807;BMP280;59655;42.590;23.364;2023-10-09T14:48:14;91922.50;;;19.93
71807;BMP280;59655;42.590;23.364;2023-10-09T14:50:47;91916.41;;;19.80
71807;BMP280;59655;42.590;23.364;2023-10-09T14:53:13;91912.91;;;19.78
71807;BMP280;59655;42.590;23.364;2023-10-09T14:55:40;91912.81;;;19.76
71807;BMP280;59655;42.590;23.364;2023-10-09T14:58:06;91909.63;;;19.68
71807;BMP280;59655;42.590;23.364;2023-10-09T15:00:32;91897.25;;;19.51
71807;BMP280;59655;42.590;23.364;2023-10-09T15:02:59;91904.25;;;19.44
71807;BMP280;59655;42.590;23.364;2023-10-09T15:05:24;91890.91;;;19.34
71807;BMP280;59655;42.590;23.364;2023-10-09T15:07:52;91898.28;;;19.10
71807;BMP280;59655;42.590;23.364;2023-10-09T15:10:17;91900.13;;;19.08
71807;BMP280;59655;42.590;23.364;2023-10-09T15:12:43;91899.03;;;18.89